createdAt,value
2023-05-22T00:00:04.756Z,5.00
2023-05-22T00:01:53.918Z,4.80
2023-05-22T00:03:40.369Z,4.86
2023-05-22T00:05:11.224Z,5.28
2023-05-22T00:06:45.901Z,5.16
2023-05-22T00:08:19.409Z,5.19
2023-05-22T00:10:04.378Z,5.26
2023-05-22T00:11:40.359Z,5.18
2023-05-22T00:13:25.855Z,5.12
2023-05-22T00:15:10.062Z,5.36
2023-05-22T00:16:45.710Z,5.02
2023-05-22T00:18:09.691Z,5.44
2023-05-22T00:19:45.188Z,5.23
2023-05-22T00:21:26.172Z,5.44
2023-05-22T00:23:02.411Z,5.06
2023-05-22T00:24:47.663Z,5.64
2023-05-22T00:26:35.160Z,5.59
2023-05-22T00:28:08.776Z,5.85
2023-05-22T00:29:42.026Z,5.96
2023-05-22T00:31:24.792Z,6.15
2023-05-22T00:32:58.547Z,6.39
2023-05-22T00:34:31.951Z,5.74
2023-05-22T00:35:54.665Z,6.46
2023-05-22T00:37:20.751Z,5.71
2023-05-22T00:38:42.588Z,5.59
2023-05-22T00:40:18.823Z,6.17
2023-05-22T00:41:42.515Z,6.04
2023-05-22T00:43:23.383Z,6.82
2023-05-22T00:45:08.376Z,9.66
2023-05-22T00:46:34.845Z,10.36
2023-05-22T00:48:08.480Z,11.12
2023-05-22T00:49:30.320Z,10.09
2023-05-22T00:51:06.209Z,9.33
2023-05-22T00:52:32.943Z,8.99
2023-05-22T00:54:14.004Z,8.05
2023-05-22T00:55:35.847Z,7.41
2023-05-22T00:57:00.749Z,7.10
2023-05-22T00:58:24.876Z,6.93
2023-05-22T00:59:59.724Z,6.18
2023-05-22T01:01:36.872Z,5.77
2023-05-22T01:03:21.930Z,6.05
2023-05-22T01:04:57.880Z,5.77
2023-05-22T01:06:39.673Z,5.29
2023-05-22T01:08:01.903Z,5.43
2023-05-22T01:09:28.818Z,5.33
2023-05-22T01:11:10.452Z,5.80
2023-05-22T01:12:44.375Z,5.34
2023-05-22T01:14:29.410Z,5.41
2023-05-22T01:16:14.802Z,5.77
2023-05-22T01:17:56.006Z,5.67
2023-05-22T01:19:42.636Z,5.55
2023-05-22T01:21:27.903Z,5.27
2023-05-22T01:23:03.384Z,5.78
2023-05-22T01:24:46.236Z,5.92
2023-05-22T01:26:31.594Z,6.57
2023-05-22T01:28:17.090Z,6.10
2023-05-22T01:29:50.627Z,6.27
2023-05-22T01:31:26.075Z,6.54
2023-05-22T01:32:59.937Z,6.37
2023-05-22T01:34:47.472Z,7.31
2023-05-22T01:36:22.543Z,7.45
2023-05-22T01:37:56.251Z,7.29
2023-05-22T01:39:30.077Z,7.97
2023-05-22T01:41:10.714Z,7.30
2023-05-22T01:42:44.275Z,7.22
2023-05-22T01:44:25.541Z,6.91
2023-05-22T01:45:50.307Z,6.70
2023-05-22T01:47:35.551Z,6.37
2023-05-22T01:49:16.500Z,6.27
2023-05-22T01:50:56.933Z,6.12
2023-05-22T01:52:55.837Z,6.37
2023-05-22T01:54:40.422Z,6.73
2023-05-22T01:56:17.028Z,6.91
2023-05-22T01:57:52.939Z,6.92
2023-05-22T01:59:26.190Z,7.28
2023-05-22T02:01:07.077Z,6.93
2023-05-22T02:02:53.421Z,6.88
2023-05-22T02:04:22.633Z,6.62
2023-05-22T02:05:56.530Z,6.18
2023-05-22T02:07:41.508Z,6.26
2023-05-22T02:09:13.053Z,5.47
2023-05-22T02:10:47.364Z,6.55
2023-05-22T02:12:32.781Z,6.22
2023-05-22T02:14:18.164Z,6.37
2023-05-22T02:15:51.588Z,6.21
2023-05-22T02:17:24.628Z,6.39
2023-05-22T02:18:46.738Z,6.77
2023-05-22T02:20:27.492Z,6.57
2023-05-22T02:22:02.108Z,6.41
2023-05-22T02:23:47.047Z,6.21
2023-05-22T02:25:21.279Z,6.34
2023-05-22T02:27:06.229Z,6.35
2023-05-22T02:28:51.271Z,5.91
2023-05-22T02:30:36.980Z,6.25
2023-05-22T02:32:20.176Z,6.17
2023-05-22T02:33:53.969Z,6.10
2023-05-22T02:35:39.572Z,6.09
2023-05-22T02:37:15.729Z,5.81
2023-05-22T02:39:10.685Z,6.03
2023-05-22T02:40:52.000Z,5.57
2023-05-22T02:42:16.574Z,5.51
2023-05-22T02:43:50.417Z,5.50
2023-05-22T02:45:23.595Z,5.61
2023-05-22T02:46:57.482Z,6.43
2023-05-22T02:48:44.849Z,6.29
2023-05-22T02:50:08.411Z,6.69
2023-05-22T02:51:41.934Z,6.23
2023-05-22T02:53:03.864Z,6.04
2023-05-22T02:54:37.495Z,6.22
2023-05-22T02:56:12.972Z,6.15
2023-05-22T02:57:46.486Z,6.33
2023-05-22T02:59:17.717Z,6.36
2023-05-22T03:00:47.082Z,7.04
2023-05-22T03:02:21.761Z,6.64
2023-05-22T03:03:50.834Z,6.67
2023-05-22T03:05:24.839Z,6.77
2023-05-22T03:06:58.223Z,6.02
2023-05-22T03:08:34.128Z,6.42
2023-05-22T03:10:08.925Z,6.75
2023-05-22T03:11:45.023Z,6.13
2023-05-22T03:13:28.953Z,6.84
2023-05-22T03:15:15.150Z,6.82
2023-05-22T03:17:00.212Z,6.56
2023-05-22T03:18:27.626Z,6.59
2023-05-22T03:20:04.910Z,6.24
2023-05-22T03:21:49.684Z,6.34
2023-05-22T03:23:33.408Z,6.27
2023-05-22T03:25:14.317Z,5.99
2023-05-22T03:27:00.238Z,6.16
2023-05-22T03:28:41.901Z,6.16
2023-05-22T03:30:22.953Z,6.30
2023-05-22T03:32:04.849Z,6.30
2023-05-22T03:33:38.329Z,6.76
2023-05-22T03:35:29.900Z,6.49
2023-05-22T03:37:22.422Z,5.80
2023-05-22T03:38:56.629Z,6.50
2023-05-22T03:40:42.261Z,6.25
2023-05-22T03:42:17.312Z,5.99
2023-05-22T03:44:02.883Z,6.01
2023-05-22T03:45:47.948Z,5.67
2023-05-22T03:47:35.482Z,5.82
2023-05-22T03:49:25.263Z,5.46
2023-05-22T03:51:14.869Z,5.84
2023-05-22T03:52:38.592Z,6.18
2023-05-22T03:54:07.458Z,6.10
2023-05-22T03:55:42.781Z,5.90
2023-05-22T03:57:25.058Z,6.43
2023-05-22T03:58:51.507Z,6.31
2023-05-22T04:00:42.406Z,6.04
2023-05-22T04:02:17.099Z,5.96
2023-05-22T04:03:58.320Z,6.12
2023-05-22T04:05:32.013Z,5.82
2023-05-22T04:06:53.926Z,5.48
2023-05-22T04:08:46.935Z,6.30
2023-05-22T04:10:22.451Z,5.60
2023-05-22T04:11:58.461Z,6.19
2023-05-22T04:13:31.918Z,5.19
2023-05-22T04:15:21.874Z,5.33
2023-05-22T04:16:57.475Z,5.49
2023-05-22T04:18:43.927Z,5.70
2023-05-22T04:20:17.970Z,5.51
2023-05-22T04:21:59.040Z,5.22
2023-05-22T04:23:52.567Z,5.08
2023-05-22T04:25:26.061Z,5.16
2023-05-22T04:27:07.047Z,5.44
2023-05-22T04:28:42.950Z,5.46
2023-05-22T04:30:32.941Z,4.98
2023-05-22T04:32:08.712Z,4.99
2023-05-22T04:33:39.931Z,5.38
2023-05-22T04:35:31.678Z,5.62
2023-05-22T04:37:13.501Z,5.15
2023-05-22T04:38:36.617Z,4.82
2023-05-22T04:40:19.067Z,4.99
2023-05-22T04:42:04.008Z,5.27
2023-05-22T04:43:50.327Z,4.92
2023-05-22T04:45:25.296Z,4.87
2023-05-22T04:46:59.769Z,5.64
2023-05-22T04:48:43.586Z,5.28
2023-05-22T04:50:24.304Z,6.40
2023-05-22T04:52:09.388Z,5.18
2023-05-22T04:53:33.542Z,5.08
2023-05-22T04:55:23.608Z,4.91
2023-05-22T04:56:53.267Z,5.29
2023-05-22T04:58:41.156Z,5.69
2023-05-22T05:00:27.643Z,5.10
2023-05-22T05:02:03.906Z,5.33
2023-05-22T05:03:40.127Z,4.68
2023-05-22T05:05:34.725Z,5.01
2023-05-22T05:07:05.030Z,4.62
2023-05-22T05:08:49.722Z,4.63
2023-05-22T05:10:23.167Z,5.10
2023-05-22T05:12:16.413Z,5.56
2023-05-22T05:14:01.997Z,5.93
2023-05-22T05:15:47.604Z,5.82
2023-05-22T05:17:29.838Z,5.57
2023-05-22T05:19:23.574Z,6.23
2023-05-22T05:20:45.740Z,5.82
2023-05-22T05:22:10.120Z,5.57
2023-05-22T05:23:43.271Z,5.61
2023-05-22T05:25:24.480Z,5.60
2023-05-22T05:27:06.055Z,5.74
2023-05-22T05:28:51.016Z,5.03
2023-05-22T05:30:31.930Z,4.56
2023-05-22T05:32:14.379Z,4.72
2023-05-22T05:33:58.019Z,4.54
2023-05-22T05:35:50.436Z,4.70
2023-05-22T05:37:26.006Z,4.67
2023-05-22T05:39:08.381Z,4.98
2023-05-22T05:40:45.421Z,4.49
2023-05-22T05:42:27.476Z,4.47
2023-05-22T05:44:04.269Z,4.72
2023-05-22T05:45:50.545Z,4.46
2023-05-22T05:47:12.080Z,4.50
2023-05-22T05:48:36.181Z,4.69
2023-05-22T05:50:21.331Z,5.00
2023-05-22T05:52:02.078Z,5.14
2023-05-22T05:53:36.963Z,4.66
2023-05-22T05:55:11.408Z,5.05
2023-05-22T05:56:57.109Z,4.96
2023-05-22T05:58:51.185Z,5.13
2023-05-22T06:00:43.923Z,5.24
2023-05-22T06:02:17.433Z,4.82
2023-05-22T06:04:06.079Z,5.12
2023-05-22T06:05:42.115Z,4.27
2023-05-22T06:07:15.628Z,5.00
2023-05-22T06:09:05.027Z,4.47
2023-05-22T06:10:27.456Z,4.73
2023-05-22T06:12:16.371Z,4.50
2023-05-22T06:14:03.162Z,4.68
2023-05-22T06:15:36.477Z,4.41
2023-05-22T06:17:30.328Z,4.35
2023-05-22T06:18:57.049Z,4.46
2023-05-22T06:20:44.838Z,4.05
2023-05-22T06:22:14.243Z,4.88
2023-05-22T06:23:59.907Z,4.11
2023-05-22T06:25:46.522Z,4.51
2023-05-22T06:27:31.438Z,4.45
2023-05-22T06:29:25.373Z,4.46
2023-05-22T06:31:10.439Z,4.56
2023-05-22T06:32:51.163Z,4.37
2023-05-22T06:34:35.978Z,4.53
2023-05-22T06:36:00.743Z,4.38
2023-05-22T06:37:43.175Z,4.64
2023-05-22T06:39:29.767Z,4.51
2023-05-22T06:41:48.086Z,4.64
2023-05-22T06:43:23.805Z,4.09
2023-05-22T06:45:04.304Z,4.26
2023-05-22T06:46:43.173Z,3.92
2023-05-22T06:48:09.549Z,4.20
2023-05-22T06:49:56.439Z,3.96
2023-05-22T06:51:32.002Z,4.36
2023-05-22T06:53:23.824Z,4.61
2023-05-22T06:55:04.228Z,4.30
2023-05-22T06:56:31.882Z,4.08
2023-05-22T06:58:08.873Z,4.25
2023-05-22T06:59:45.762Z,3.97
2023-05-22T07:01:30.188Z,3.87
2023-05-22T07:03:10.332Z,4.22
2023-05-22T07:04:46.351Z,4.29
2023-05-22T07:06:24.760Z,3.79
2023-05-22T07:08:01.051Z,4.12
2023-05-22T07:09:35.791Z,4.10
2023-05-22T07:11:10.101Z,3.81
2023-05-22T07:12:43.451Z,3.92
2023-05-22T07:14:19.130Z,3.97
2023-05-22T07:16:00.250Z,4.02
2023-05-22T07:17:24.870Z,3.98
2023-05-22T07:18:58.489Z,3.70
2023-05-22T07:20:48.701Z,3.64
2023-05-22T07:22:26.766Z,3.69
2023-05-22T07:24:11.965Z,3.76
2023-05-22T07:26:03.420Z,3.48
2023-05-22T07:27:39.692Z,3.64
2023-05-22T07:29:25.785Z,3.55
2023-05-22T07:31:12.342Z,3.49
2023-05-22T07:32:45.781Z,3.26
2023-05-22T07:34:19.476Z,3.73
2023-05-22T07:35:53.321Z,3.39
2023-05-22T07:37:28.928Z,3.26
2023-05-22T07:39:02.429Z,3.41
2023-05-22T07:40:47.383Z,3.42
2023-05-22T07:42:32.731Z,3.96
2023-05-22T07:43:59.791Z,3.66
2023-05-22T07:45:48.326Z,3.50
2023-05-22T07:47:38.732Z,3.46
2023-05-22T07:49:16.229Z,3.10
2023-05-22T07:50:51.696Z,3.19
2023-05-22T07:52:25.478Z,3.57
2023-05-22T07:53:54.490Z,3.35
2023-05-22T07:55:40.647Z,3.48
2023-05-22T07:57:33.158Z,3.66
2023-05-22T07:59:24.240Z,3.26
2023-05-22T08:01:05.839Z,3.08
2023-05-22T08:02:52.411Z,2.40
2023-05-22T08:04:37.828Z,2.88
2023-05-22T08:06:29.172Z,2.74
2023-05-22T08:08:03.731Z,2.92
2023-05-22T08:09:48.652Z,3.00
2023-05-22T08:11:40.448Z,3.33
2023-05-22T08:13:25.767Z,2.90
2023-05-22T08:15:18.115Z,2.87
2023-05-22T08:16:59.338Z,2.81
2023-05-22T08:18:40.765Z,3.15
2023-05-22T08:20:21.573Z,3.01
2023-05-22T08:21:58.041Z,2.98
2023-05-22T08:23:31.326Z,3.15
2023-05-22T08:25:05.109Z,3.18
2023-05-22T08:26:47.316Z,3.04
2023-05-22T08:28:32.256Z,2.74
2023-05-22T08:30:13.125Z,2.72
2023-05-22T08:31:58.433Z,3.01
2023-05-22T08:33:22.771Z,2.86
2023-05-22T08:34:46.862Z,2.97
2023-05-22T08:36:32.333Z,2.68
2023-05-22T08:38:05.846Z,3.21
2023-05-22T08:39:40.610Z,2.73
2023-05-22T08:41:25.136Z,3.16
2023-05-22T08:43:01.598Z,2.75
2023-05-22T08:44:27.803Z,2.86
2023-05-22T08:46:13.009Z,2.49
2023-05-22T08:47:58.388Z,2.59
2023-05-22T08:49:51.582Z,2.86
2023-05-22T08:51:45.788Z,2.89
2023-05-22T08:53:39.434Z,2.96
2023-05-22T08:55:12.605Z,2.77
2023-05-22T08:56:57.823Z,2.80
2023-05-22T08:58:31.324Z,2.69
2023-05-22T08:59:55.296Z,2.69
2023-05-22T09:01:17.101Z,3.07
2023-05-22T09:02:53.081Z,2.79
2023-05-22T09:04:36.670Z,2.71
2023-05-22T09:06:11.241Z,2.84
2023-05-22T09:07:33.018Z,2.60
2023-05-22T09:08:55.098Z,2.73
2023-05-22T09:10:36.831Z,2.63
2023-05-22T09:12:12.443Z,2.79
2023-05-22T09:13:45.900Z,2.76
2023-05-22T09:15:21.234Z,2.92
2023-05-22T09:17:02.104Z,2.76
2023-05-22T09:20:32.485Z,3.55
2023-05-22T09:22:07.835Z,2.79
2023-05-22T09:23:43.665Z,2.75
2023-05-22T09:25:07.889Z,2.63
2023-05-22T09:27:01.599Z,2.79
2023-05-22T09:28:25.397Z,2.62
2023-05-22T09:30:06.891Z,2.53
2023-05-22T09:31:42.474Z,2.83
2023-05-22T09:33:18.033Z,3.01
2023-05-22T09:34:51.850Z,2.82
2023-05-22T09:36:28.095Z,2.80
2023-05-22T09:38:11.429Z,2.96
2023-05-22T09:39:57.926Z,2.77
2023-05-22T09:41:34.190Z,2.96
2023-05-22T09:42:58.039Z,2.42
2023-05-22T09:44:20.087Z,3.32
2023-05-22T09:45:41.882Z,3.12
2023-05-22T09:47:17.856Z,2.94
2023-05-22T09:48:39.830Z,2.96
2023-05-22T09:50:14.004Z,3.11
2023-05-22T09:51:42.872Z,2.84
2023-05-22T09:53:27.925Z,2.83
2023-05-22T09:55:05.260Z,2.87
2023-05-22T09:56:38.681Z,2.69
2023-05-22T09:58:13.852Z,3.10
2023-05-22T09:59:42.914Z,3.10
2023-05-22T10:01:19.185Z,2.83
2023-05-22T10:02:55.051Z,2.82
2023-05-22T10:04:18.306Z,2.93
2023-05-22T10:05:42.409Z,3.10
2023-05-22T10:07:06.762Z,2.76
2023-05-22T10:08:28.954Z,2.97
2023-05-22T10:09:53.260Z,2.77
2023-05-22T10:11:17.182Z,3.22
2023-05-22T10:12:39.022Z,3.02
2023-05-22T10:14:08.898Z,3.24
2023-05-22T10:15:31.160Z,3.38
2023-05-22T10:17:13.109Z,3.07
2023-05-22T10:18:58.243Z,2.94
2023-05-22T10:20:39.917Z,3.31
2023-05-22T10:22:28.683Z,2.91
2023-05-22T10:23:52.942Z,3.40
2023-05-22T10:25:38.012Z,3.21
2023-05-22T10:27:19.335Z,3.39
2023-05-22T10:28:46.100Z,2.73
2023-05-22T18:54:46.260Z,7.23
2023-05-22T18:56:19.356Z,7.78
2023-05-22T18:58:04.290Z,7.54
2023-05-22T18:59:33.612Z,7.46
2023-05-22T19:01:08.328Z,8.03
2023-05-22T19:02:53.551Z,7.53
2023-05-22T19:04:38.207Z,7.69
2023-05-22T19:06:14.235Z,8.14
2023-05-22T19:07:50.135Z,7.36
2023-05-22T19:09:22.062Z,7.66
2023-05-22T19:10:55.560Z,7.44
2023-05-22T19:12:26.879Z,7.67
2023-05-22T19:14:01.691Z,7.66
2023-05-22T19:15:25.544Z,7.39
2023-05-22T19:17:01.696Z,7.44
2023-05-22T19:18:27.316Z,7.05
2023-05-22T19:20:09.966Z,7.15
2023-05-22T19:21:42.714Z,7.00
2023-05-22T19:23:06.715Z,6.57
2023-05-22T19:24:32.503Z,6.67
2023-05-22T19:26:14.002Z,6.65
2023-05-22T19:27:47.485Z,6.64
2023-05-22T19:29:34.826Z,6.25
2023-05-22T19:30:58.460Z,6.56
2023-05-22T19:32:26.259Z,6.50
2023-05-22T19:33:52.454Z,6.81
2023-05-22T19:35:14.966Z,6.40
2023-05-22T19:36:57.343Z,6.39
2023-05-22T19:38:23.376Z,6.49
2023-05-22T19:39:57.090Z,6.30
2023-05-22T19:41:22.778Z,6.43
2023-05-22T19:42:47.105Z,6.14
2023-05-22T19:44:11.279Z,6.73
2023-05-22T19:45:32.831Z,7.42
2023-05-22T19:47:01.860Z,7.41
2023-05-22T19:48:33.119Z,7.15
2023-05-22T19:50:06.741Z,7.64
2023-05-22T19:51:42.714Z,7.13
2023-05-22T19:53:07.161Z,7.44
2023-05-22T19:54:31.900Z,6.92
2023-05-22T19:56:02.118Z,6.52
2023-05-22T19:57:23.835Z,6.36
2023-05-22T19:58:45.767Z,6.78
2023-05-22T20:00:19.419Z,7.15
2023-05-22T20:01:40.915Z,6.42
2023-05-22T20:03:25.902Z,6.69
2023-05-22T20:05:20.171Z,6.30
2023-05-22T20:06:54.556Z,6.45
2023-05-22T20:08:18.078Z,6.24
2023-05-22T20:09:51.439Z,6.75
2023-05-22T20:11:26.136Z,6.66
2023-05-22T20:12:50.087Z,6.59
2023-05-22T20:14:11.862Z,6.60
2023-05-22T20:15:36.747Z,6.90
2023-05-22T20:17:22.184Z,6.64
2023-05-22T20:18:56.299Z,7.03
2023-05-22T20:20:19.489Z,7.19
2023-05-22T20:22:00.258Z,6.36
2023-05-22T20:23:24.585Z,6.69
2023-05-22T20:24:55.002Z,6.91
2023-05-22T20:26:40.119Z,6.92
2023-05-22T20:28:13.913Z,6.99
2023-05-22T20:30:07.551Z,6.37
2023-05-22T20:31:43.486Z,6.70
2023-05-22T20:33:37.310Z,7.52
2023-05-22T20:35:18.233Z,6.96
2023-05-22T20:36:42.817Z,6.83
2023-05-22T20:38:18.928Z,6.94
2023-05-22T20:39:45.040Z,6.98
2023-05-22T20:41:19.753Z,6.69
2023-05-22T20:42:44.241Z,7.12
2023-05-22T20:44:12.335Z,7.32
2023-05-22T20:45:47.995Z,6.99
2023-05-22T20:47:17.124Z,7.53
2023-05-22T20:48:50.489Z,6.79
2023-05-22T20:50:19.792Z,7.49
2023-05-22T20:51:43.699Z,7.66
2023-05-22T20:53:18.222Z,7.33
2023-05-22T20:54:39.836Z,7.81
2023-05-22T20:56:15.540Z,7.74
2023-05-22T20:57:46.292Z,7.84
2023-05-22T20:59:15.884Z,7.07
2023-05-22T21:00:42.052Z,8.41
2023-05-22T21:02:04.182Z,8.05
2023-05-22T21:03:35.541Z,7.64
2023-05-22T21:04:57.185Z,7.62
2023-05-22T21:06:33.752Z,7.68
2023-05-22T21:08:10.876Z,7.57
2023-05-22T21:09:40.148Z,7.15
2023-05-22T21:11:13.551Z,7.87
2023-05-22T21:12:46.922Z,7.24
2023-05-22T21:14:20.505Z,7.45
2023-05-22T21:15:42.616Z,8.28
2023-05-22T21:17:07.500Z,7.62
2023-05-22T21:18:29.114Z,8.17
2023-05-22T21:19:55.958Z,8.33
2023-05-22T21:21:20.010Z,8.01
2023-05-22T21:22:51.176Z,7.69
2023-05-22T21:24:20.694Z,7.67
2023-05-22T21:25:54.185Z,7.76
2023-05-22T21:27:35.775Z,7.37
2023-05-22T21:28:59.709Z,8.28
2023-05-22T21:30:29.758Z,7.88
2023-05-22T21:31:53.698Z,7.73
2023-05-22T21:33:15.876Z,8.53
2023-05-22T21:34:41.035Z,7.99
2023-05-22T21:36:07.689Z,7.96
2023-05-22T21:37:48.415Z,8.62
2023-05-22T21:39:17.901Z,7.93
2023-05-22T21:40:42.841Z,8.07
2023-05-22T21:42:19.025Z,7.65
2023-05-22T21:43:41.589Z,7.88
2023-05-22T21:45:11.296Z,8.19
2023-05-22T21:46:35.805Z,7.55
2023-05-22T21:48:09.728Z,8.14
2023-05-22T21:49:43.407Z,7.89
2023-05-22T21:51:07.914Z,7.64
2023-05-22T21:52:48.954Z,7.98
2023-05-22T21:54:11.020Z,8.73
2023-05-22T21:55:35.215Z,7.59
2023-05-22T21:56:57.366Z,7.96
2023-05-22T21:58:19.879Z,8.03
2023-05-22T21:59:53.039Z,7.38
2023-05-22T22:01:20.682Z,7.58
2023-05-22T22:03:06.995Z,8.50
2023-05-22T22:04:51.904Z,7.28
2023-05-22T22:06:13.685Z,8.06
2023-05-22T22:07:49.768Z,7.88
2023-05-22T22:09:12.196Z,7.75
2023-05-22T22:10:44.533Z,8.14
2023-05-22T22:12:06.556Z,7.69
2023-05-22T22:13:30.446Z,7.97
2023-05-22T22:14:54.735Z,7.73
2023-05-22T22:16:24.368Z,7.24
2023-05-22T22:17:47.411Z,7.78
2023-05-22T22:19:11.822Z,7.76
2023-05-22T22:20:45.119Z,8.00
2023-05-22T22:22:18.793Z,7.71
2023-05-22T22:23:40.631Z,7.89
2023-05-22T22:25:14.141Z,8.60
2023-05-22T22:26:47.952Z,8.11
2023-05-22T22:28:10.462Z,8.12
2023-05-22T22:29:46.847Z,7.82
2023-05-22T22:31:11.723Z,8.39
2023-05-22T22:32:35.963Z,8.71
2023-05-22T22:34:09.054Z,10.55
2023-05-22T22:35:54.013Z,13.05
2023-05-22T22:37:27.650Z,12.79
2023-05-22T22:38:49.456Z,10.57
2023-05-22T22:40:26.664Z,9.06
2023-05-22T22:41:51.049Z,8.50
2023-05-22T22:43:15.629Z,8.60
2023-05-22T22:44:46.700Z,8.16
2023-05-22T22:46:09.123Z,8.05
2023-05-22T22:47:31.882Z,8.29
2023-05-22T22:48:57.045Z,8.36
2023-05-22T22:50:21.625Z,8.15
2023-05-22T22:51:43.737Z,8.02
2023-05-22T22:53:21.009Z,8.19
2023-05-22T22:54:45.575Z,8.72
2023-05-22T22:56:17.935Z,8.71
2023-05-22T22:57:51.262Z,8.52
2023-05-22T22:59:24.709Z,7.86
2023-05-22T23:00:49.994Z,8.21
2023-05-22T23:02:22.404Z,8.12
2023-05-22T23:03:46.447Z,8.04
2023-05-22T23:05:27.851Z,8.14
2023-05-22T23:06:59.591Z,8.11
2023-05-22T23:08:23.947Z,8.04
2023-05-22T23:10:05.327Z,7.93
2023-05-22T23:11:39.194Z,8.06
2023-05-22T23:13:24.505Z,7.57
2023-05-22T23:14:55.755Z,7.98
2023-05-22T23:16:37.836Z,7.96
2023-05-22T23:18:23.585Z,7.74
2023-05-22T23:20:08.935Z,7.41
2023-05-22T23:21:45.396Z,7.93
2023-05-22T23:23:34.763Z,8.16
2023-05-22T23:25:20.088Z,8.40
2023-05-22T23:26:55.719Z,8.27
2023-05-22T23:28:37.750Z,8.61
2023-05-22T23:30:11.158Z,8.68
2023-05-22T23:31:56.294Z,8.49
2023-05-22T23:33:32.146Z,8.37
2023-05-22T23:35:26.270Z,8.34
2023-05-22T23:37:00.285Z,8.46
2023-05-22T23:38:35.731Z,8.17
2023-05-22T23:40:18.196Z,8.23
2023-05-22T23:41:54.157Z,8.16
2023-05-22T23:43:37.196Z,7.36
2023-05-22T23:45:06.486Z,7.65
2023-05-22T23:46:39.218Z,7.78
2023-05-22T23:48:08.031Z,8.58
2023-05-22T23:49:41.384Z,8.28
2023-05-22T23:51:05.213Z,8.11
2023-05-22T23:52:38.732Z,8.08
2023-05-22T23:54:00.494Z,7.60
2023-05-22T23:55:45.744Z,8.35
2023-05-22T23:57:23.644Z,7.91
2023-05-22T23:59:08.871Z,8.29
